createdAt,value
2017-12-16T00:01:27.945Z,60.44
2017-12-16T00:02:27.844Z,62.05
2017-12-16T00:04:20.725Z,63.57
2017-12-16T00:05:20.690Z,62.15
2017-12-16T00:07:13.610Z,61.40
2017-12-16T00:08:13.544Z,61.30
2017-12-16T00:10:06.432Z,61.87
2017-12-16T00:11:06.403Z,62.15
2017-12-16T00:12:59.307Z,62.62
2017-12-16T00:13:59.247Z,63.29
2017-12-16T00:15:52.127Z,63.01
2017-12-16T00:16:52.093Z,63.20
2017-12-16T00:18:45.007Z,63.20
2017-12-16T00:19:45.009Z,63.01
2017-12-16T00:21:37.829Z,62.43
2017-12-16T00:22:37.806Z,64.33
2017-12-16T00:24:30.721Z,64.81
2017-12-16T00:25:30.649Z,64.33
2017-12-16T00:27:23.527Z,64.52
2017-12-16T00:28:23.561Z,64.81
2017-12-16T00:30:16.414Z,63.95
2017-12-16T00:31:16.410Z,63.76
2017-12-16T00:33:09.235Z,64.71
2017-12-16T00:34:09.193Z,64.90
2017-12-16T00:36:02.115Z,64.33
2017-12-16T00:37:02.114Z,63.57
2017-12-16T00:38:54.927Z,63.76
2017-12-16T00:39:54.963Z,64.23
2017-12-16T00:41:47.821Z,64.90
2017-12-16T00:42:47.814Z,64.90
2017-12-16T00:44:40.639Z,64.71
2017-12-16T00:45:40.599Z,64.71
2017-12-16T00:47:33.550Z,64.71
2017-12-16T00:48:33.453Z,64.23
2017-12-16T00:50:26.335Z,65.56
2017-12-16T00:51:26.304Z,65.66
2017-12-16T00:53:19.301Z,64.90
2017-12-16T00:54:19.157Z,66.32
2017-12-16T00:56:12.039Z,66.13
2017-12-16T00:57:12.003Z,66.80
2017-12-16T00:59:05.976Z,66.51
2017-12-16T01:00:04.850Z,66.51
2017-12-16T01:01:57.815Z,65.28
2017-12-16T01:02:57.707Z,66.13
2017-12-16T01:05:02.739Z,66.03
2017-12-16T01:06:02.634Z,65.94
2017-12-16T01:07:55.522Z,66.03
2017-12-16T01:08:55.551Z,65.94
2017-12-16T01:10:48.401Z,64.90
2017-12-16T01:11:48.403Z,65.47
2017-12-16T01:13:41.218Z,65.84
2017-12-16T01:14:41.188Z,66.32
2017-12-16T01:16:34.106Z,65.75
2017-12-16T01:17:34.101Z,65.56
2017-12-16T01:19:26.992Z,65.31
2017-12-16T01:20:26.885Z,65.59
2017-12-16T01:22:19.842Z,66.26
2017-12-16T01:23:19.742Z,66.07
2017-12-16T01:25:12.694Z,66.35
2017-12-16T01:26:12.597Z,66.93
2017-12-16T01:28:05.549Z,66.26
2017-12-16T01:29:05.441Z,66.07
2017-12-16T01:30:58.329Z,67.11
2017-12-16T01:31:58.289Z,67.11
2017-12-16T01:33:51.238Z,67.96
2017-12-16T01:34:51.141Z,67.77
2017-12-16T01:36:44.022Z,68.91
2017-12-16T01:37:44.054Z,69.20
2017-12-16T01:39:36.913Z,69.48
2017-12-16T01:40:36.844Z,68.82
2017-12-16T01:42:29.744Z,68.63
2017-12-16T01:43:29.695Z,68.63
2017-12-16T01:45:22.616Z,68.63
2017-12-16T01:46:22.541Z,68.06
2017-12-16T01:48:15.428Z,68.25
2017-12-16T01:49:15.440Z,67.77
2017-12-16T01:51:08.342Z,68.06
2017-12-16T01:52:08.246Z,68.15
2017-12-16T01:54:01.197Z,68.63
2017-12-16T01:55:01.092Z,68.91
2017-12-16T01:56:54.048Z,69.10
2017-12-16T01:57:53.944Z,68.82
2017-12-16T01:59:46.895Z,68.82
2017-12-16T02:00:46.797Z,68.54
2017-12-16T02:02:39.745Z,69.38
2017-12-16T02:03:39.652Z,69.29
2017-12-16T02:05:32.594Z,69.86
2017-12-16T02:06:32.499Z,69.77
2017-12-16T02:08:25.449Z,71.19
2017-12-16T02:09:25.350Z,71.00
2017-12-16T02:11:18.230Z,71.66
2017-12-16T02:12:18.195Z,70.72
2017-12-16T02:14:11.145Z,71.38
2017-12-16T02:15:11.051Z,69.86
2017-12-16T02:17:03.931Z,71.66
2017-12-16T02:18:03.961Z,72.61
2017-12-16T02:19:56.813Z,72.23
2017-12-16T02:20:56.811Z,73.46
2017-12-16T02:22:49.629Z,74.22
2017-12-16T02:23:49.604Z,74.03
2017-12-16T02:25:42.553Z,72.42
2017-12-16T02:26:42.448Z,72.42
2017-12-16T02:28:35.336Z,71.76
2017-12-16T02:29:35.361Z,71.28
2017-12-16T02:31:28.216Z,71.47
2017-12-16T02:32:28.154Z,71.00
2017-12-16T02:34:21.036Z,71.19
2017-12-16T02:35:21.000Z,70.90
2017-12-16T02:37:13.953Z,71.28
2017-12-16T02:38:13.854Z,70.05
2017-12-16T02:40:06.805Z,69.10
2017-12-16T02:41:06.705Z,69.77
2017-12-16T02:42:59.620Z,69.96
2017-12-16T02:43:59.615Z,69.86
2017-12-16T02:45:52.439Z,69.20
2017-12-16T02:46:52.405Z,69.67
2017-12-16T02:48:45.324Z,69.86
2017-12-16T02:49:45.252Z,69.20
2017-12-16T02:51:38.138Z,69.20
2017-12-16T02:52:38.173Z,68.82
2017-12-16T02:54:31.027Z,68.06
2017-12-16T02:55:31.019Z,67.96
2017-12-16T02:57:23.840Z,67.96
2017-12-16T02:58:23.812Z,67.68
2017-12-16T03:00:18.808Z,67.40
2017-12-16T03:01:16.654Z,67.87
2017-12-16T03:03:09.537Z,68.06
2017-12-16T03:04:09.509Z,70.05
2017-12-16T03:06:02.462Z,68.44
2017-12-16T03:07:02.358Z,68.54
2017-12-16T03:08:55.313Z,68.25
2017-12-16T03:09:55.203Z,68.44
2017-12-16T03:11:48.670Z,68.15
2017-12-16T03:12:48.570Z,68.15
2017-12-16T03:14:41.521Z,68.54
2017-12-16T03:15:41.420Z,68.91
2017-12-16T03:17:34.374Z,68.91
2017-12-16T03:18:34.267Z,69.29
2017-12-16T03:20:27.155Z,67.96
2017-12-16T03:21:27.123Z,68.54
2017-12-16T03:23:20.038Z,67.68
2017-12-16T03:24:19.974Z,68.15
2017-12-16T03:26:12.918Z,67.87
2017-12-16T03:27:12.823Z,67.96
2017-12-16T03:29:05.738Z,68.25
2017-12-16T03:30:05.734Z,68.63
2017-12-16T03:31:58.557Z,68.73
2017-12-16T03:32:58.568Z,69.01
2017-12-16T03:34:51.435Z,69.29
2017-12-16T03:35:51.377Z,68.82
2017-12-16T03:37:44.323Z,69.48
2017-12-16T03:38:44.230Z,69.20
2017-12-16T03:40:37.185Z,69.86
2017-12-16T03:41:37.073Z,70.05
2017-12-16T03:43:29.955Z,69.57
2017-12-16T03:44:29.927Z,69.77
2017-12-16T03:46:22.848Z,70.15
2017-12-16T03:47:22.784Z,69.67
2017-12-16T03:49:15.661Z,69.96
2017-12-16T03:50:15.625Z,69.86
2017-12-16T03:52:08.542Z,70.43
2017-12-16T03:53:08.480Z,69.77
2017-12-16T03:55:01.428Z,72.04
2017-12-16T03:56:01.330Z,72.80
2017-12-16T03:57:54.234Z,73.37
2017-12-16T03:58:54.244Z,72.89
2017-12-16T04:00:47.134Z,72.89
2017-12-16T04:01:47.031Z,72.89
2017-12-16T04:03:39.981Z,72.52
2017-12-16T04:04:39.878Z,73.84
2017-12-16T04:06:32.826Z,71.85
2017-12-16T04:07:32.734Z,72.80
2017-12-16T04:09:25.681Z,72.04
2017-12-16T04:10:25.578Z,71.76
2017-12-16T04:12:18.467Z,71.57
2017-12-16T04:13:18.428Z,72.71
2017-12-16T04:15:11.362Z,73.84
2017-12-16T04:16:11.344Z,73.46
2017-12-16T04:18:04.159Z,73.37
2017-12-16T04:19:04.193Z,73.37
2017-12-16T04:20:57.082Z,73.46
2017-12-16T04:21:56.976Z,72.80
2017-12-16T04:23:49.862Z,71.76
2017-12-16T04:24:49.833Z,71.28
2017-12-16T04:26:42.776Z,71.85
2017-12-16T04:27:42.679Z,71.09
2017-12-16T04:29:35.592Z,71.28
2017-12-16T04:30:35.538Z,71.47
2017-12-16T04:32:28.416Z,71.66
2017-12-16T04:33:28.378Z,71.19
2017-12-16T04:35:21.303Z,71.57
2017-12-16T04:36:21.245Z,72.71
2017-12-16T04:38:14.115Z,71.85
2017-12-16T04:39:14.144Z,71.09
2017-12-16T04:41:07.002Z,71.09
2017-12-16T04:42:06.937Z,71.76
2017-12-16T04:43:59.813Z,71.38
2017-12-16T04:44:59.786Z,71.28
2017-12-16T04:46:52.692Z,71.85
2017-12-16T04:47:52.702Z,71.85
2017-12-16T04:49:45.588Z,71.28
2017-12-16T04:50:45.485Z,70.53
2017-12-16T04:52:38.435Z,70.90
2017-12-16T04:53:38.347Z,70.90
2017-12-16T04:55:31.282Z,69.96
2017-12-16T04:56:31.187Z,71.09
2017-12-16T04:58:24.101Z,69.96
2017-12-16T04:59:24.101Z,69.86
2017-12-16T05:01:16.922Z,67.96
2017-12-16T05:02:16.886Z,65.97
2017-12-16T05:04:10.864Z,65.31
2017-12-16T05:05:09.745Z,63.60
2017-12-16T05:07:02.688Z,65.97
2017-12-16T05:08:02.607Z,64.52
2017-12-16T05:09:55.546Z,63.48
2017-12-16T05:10:55.438Z,62.91
2017-12-16T05:12:48.325Z,61.21
2017-12-16T05:13:48.285Z,62.53
2017-12-16T05:15:41.717Z,60.35
2017-12-16T05:16:41.715Z,59.69
2017-12-16T05:18:34.603Z,59.41
2017-12-16T05:19:34.506Z,58.17
2017-12-16T05:21:27.414Z,57.89
2017-12-16T05:22:27.415Z,57.70
2017-12-16T05:24:21.324Z,57.32
2017-12-16T05:25:20.203Z,57.42
2017-12-16T05:27:13.110Z,56.09
2017-12-16T05:28:13.053Z,57.23
2017-12-16T05:30:06.009Z,56.56
2017-12-16T05:31:05.900Z,55.99
2017-12-16T05:32:58.807Z,55.24
2017-12-16T05:33:58.817Z,55.62
2017-12-16T05:35:51.706Z,55.52
2017-12-16T05:36:51.608Z,56.46
2017-12-16T05:38:44.552Z,56.09
2017-12-16T05:39:44.459Z,55.33
2017-12-16T05:41:37.403Z,54.67
2017-12-16T05:42:37.307Z,54.67
2017-12-16T05:44:30.258Z,54.79
2017-12-16T05:45:30.160Z,54.57
2017-12-16T05:47:23.105Z,54.19
2017-12-16T05:48:23.007Z,54.57
2017-12-16T05:50:15.959Z,54.38
2017-12-16T05:51:15.858Z,53.53
2017-12-16T05:53:08.808Z,53.63
2017-12-16T05:54:08.705Z,53.25
2017-12-16T05:56:01.659Z,54.79
2017-12-16T05:57:01.557Z,54.00
2017-12-16T05:58:54.513Z,54.57
2017-12-16T05:59:54.407Z,54.28
2017-12-16T06:01:47.358Z,55.62
2017-12-16T06:02:47.261Z,55.33
2017-12-16T06:04:40.205Z,55.14
2017-12-16T06:05:40.174Z,55.43
2017-12-16T06:07:33.056Z,54.67
2017-12-16T06:08:32.957Z,54.41
2017-12-16T06:10:25.846Z,55.07
2017-12-16T06:11:25.814Z,54.50
2017-12-16T06:13:19.786Z,54.32
2017-12-16T06:14:18.659Z,55.93
2017-12-16T06:16:11.548Z,55.83
2017-12-16T06:17:11.575Z,56.59
2017-12-16T06:19:04.425Z,56.21
2017-12-16T06:20:04.359Z,56.12
2017-12-16T06:21:57.246Z,55.93
2017-12-16T06:22:57.210Z,55.55
2017-12-16T06:24:50.125Z,56.78
2017-12-16T06:25:50.127Z,56.68
2017-12-16T06:27:42.951Z,56.21
2017-12-16T06:28:42.981Z,56.49
2017-12-16T06:30:35.826Z,57.32
2017-12-16T06:31:35.825Z,56.68
2017-12-16T06:33:28.648Z,56.56
2017-12-16T06:34:28.684Z,55.99
2017-12-16T06:36:21.535Z,57.35
2017-12-16T06:37:21.527Z,56.27
2017-12-16T06:39:14.351Z,55.45
2017-12-16T06:40:14.377Z,57.44
2017-12-16T06:42:07.229Z,59.15
2017-12-16T06:43:07.166Z,60.57
2017-12-16T06:45:00.228Z,60.57
2017-12-16T06:46:00.015Z,59.53
2017-12-16T06:47:52.969Z,57.82
2017-12-16T06:48:52.864Z,58.26
2017-12-16T06:50:45.752Z,57.51
2017-12-16T06:51:45.779Z,57.89
2017-12-16T06:53:38.667Z,57.89
2017-12-16T06:54:38.567Z,58.93
2017-12-16T06:56:31.516Z,58.01
2017-12-16T06:57:31.420Z,58.07
2017-12-16T06:59:24.332Z,59.59
2017-12-16T07:00:26.279Z,59.69
2017-12-16T07:02:17.242Z,58.29
2017-12-16T07:03:17.117Z,59.03
2017-12-16T07:05:10.585Z,57.89
2017-12-16T07:06:10.515Z,57.98
2017-12-16T07:08:03.428Z,57.51
2017-12-16T07:09:03.329Z,57.42
2017-12-16T07:10:56.379Z,57.51
2017-12-16T07:11:56.216Z,56.27
2017-12-16T07:13:49.132Z,56.75
2017-12-16T07:14:49.098Z,55.90
2017-12-16T07:16:41.945Z,55.52
2017-12-16T07:17:41.884Z,55.71
2017-12-16T07:19:34.835Z,55.24
2017-12-16T07:20:34.740Z,56.27
2017-12-16T07:22:27.651Z,55.90
2017-12-16T07:23:27.584Z,55.71
2017-12-16T07:25:20.532Z,54.28
2017-12-16T07:26:20.434Z,54.67
2017-12-16T07:28:13.350Z,54.28
2017-12-16T07:29:13.301Z,54.57
2017-12-16T07:31:06.237Z,54.47
2017-12-16T07:32:06.132Z,53.81
2017-12-16T07:33:59.053Z,53.15
2017-12-16T07:34:58.995Z,53.72
2017-12-16T07:36:51.932Z,53.72
2017-12-16T07:37:51.837Z,54.57
2017-12-16T07:39:44.787Z,54.10
2017-12-16T07:40:44.685Z,54.47
2017-12-16T07:42:37.637Z,55.62
2017-12-16T07:43:37.600Z,54.86
2017-12-16T07:45:30.443Z,54.57
2017-12-16T07:46:30.396Z,54.57
2017-12-16T07:48:23.274Z,54.67
2017-12-16T07:49:23.240Z,54.38
2017-12-16T07:51:16.192Z,56.66
2017-12-16T07:52:16.087Z,55.62
2017-12-16T07:54:08.976Z,55.99
2017-12-16T07:55:09.002Z,54.67
2017-12-16T07:57:01.895Z,56.30
2017-12-16T07:58:01.790Z,55.83
2017-12-16T07:59:54.678Z,54.95
2017-12-16T08:00:54.641Z,54.95
2017-12-16T08:02:47.596Z,54.69
2017-12-16T08:03:47.492Z,54.60
2017-12-16T08:05:40.473Z,54.22
2017-12-16T08:06:40.446Z,55.74
2017-12-16T08:08:33.397Z,55.26
2017-12-16T08:09:33.303Z,54.60
2017-12-16T08:11:26.249Z,55.55
2017-12-16T08:12:26.148Z,56.12
2017-12-16T08:14:19.101Z,56.87
2017-12-16T08:15:18.997Z,56.40
2017-12-16T08:17:11.885Z,56.68
2017-12-16T08:18:11.844Z,57.44
2017-12-16T08:20:04.801Z,57.54
2017-12-16T08:21:04.696Z,57.25
2017-12-16T08:22:57.586Z,58.20
2017-12-16T08:23:57.613Z,57.82
2017-12-16T08:25:50.459Z,58.77
2017-12-16T08:26:50.465Z,59.15
2017-12-16T08:28:43.282Z,59.15
2017-12-16T08:29:43.311Z,59.25
2017-12-16T08:31:36.216Z,59.63
2017-12-16T08:32:36.167Z,59.05
2017-12-16T08:34:29.047Z,57.92
2017-12-16T08:35:28.957Z,58.29
2017-12-16T08:37:21.870Z,59.53
2017-12-16T08:38:21.866Z,59.44
2017-12-16T08:40:14.696Z,59.53
2017-12-16T08:41:14.713Z,59.53
2017-12-16T08:43:07.562Z,59.81
2017-12-16T08:44:07.571Z,59.15
2017-12-16T08:46:00.388Z,59.25
2017-12-16T08:47:00.360Z,60.47
2017-12-16T08:48:53.265Z,61.24
2017-12-16T08:49:53.267Z,61.43
2017-12-16T08:51:46.150Z,60.76
2017-12-16T08:52:46.062Z,61.71
2017-12-16T08:54:38.971Z,61.90
2017-12-16T08:55:38.964Z,61.52
2017-12-16T08:57:36.461Z,61.80
2017-12-16T08:58:33.007Z,61.43
2017-12-16T09:00:26.067Z,61.24
2017-12-16T09:01:26.031Z,62.28
2017-12-16T09:06:22.813Z,61.99
2017-12-16T09:07:22.806Z,61.52
2017-12-16T09:09:15.806Z,61.61
2017-12-16T09:10:15.866Z,61.14
2017-12-16T09:12:08.637Z,61.21
2017-12-16T09:13:08.725Z,60.28
2017-12-16T09:15:01.315Z,59.31
2017-12-16T09:16:01.251Z,60.25
2017-12-16T09:17:55.307Z,60.64
2017-12-16T09:18:54.136Z,59.78
2017-12-16T09:20:47.925Z,60.06
2017-12-16T09:21:47.935Z,59.59
2017-12-16T09:25:12.445Z,59.50
2017-12-16T09:26:12.556Z,60.73
2017-12-16T09:28:05.328Z,60.54
2017-12-16T09:29:05.469Z,59.78
2017-12-16T09:30:58.273Z,60.64
2017-12-16T09:31:58.072Z,61.02
2017-12-16T09:33:50.989Z,61.61
2017-12-16T09:34:50.987Z,61.99
2017-12-16T09:36:43.859Z,61.61
2017-12-16T09:37:43.810Z,61.61
2017-12-16T09:39:36.767Z,61.80
2017-12-16T09:40:36.664Z,61.52
2017-12-16T09:42:29.628Z,61.99
2017-12-16T09:43:29.554Z,61.90
2017-12-16T09:45:22.383Z,63.60
2017-12-16T09:46:22.368Z,63.79
2017-12-16T09:48:15.314Z,64.55
2017-12-16T09:49:15.222Z,64.93
2017-12-16T09:51:08.140Z,64.27
2017-12-16T09:52:07.993Z,66.16
2017-12-16T09:54:00.942Z,64.65
2017-12-16T09:55:00.913Z,65.82
2017-12-16T09:56:53.788Z,69.57
2017-12-16T09:57:53.796Z,68.29
2017-12-16T09:59:46.688Z,68.95
2017-12-16T10:00:46.599Z,70.28
2017-12-16T10:02:39.541Z,69.38
2017-12-16T10:03:39.443Z,70.56
2017-12-16T10:05:32.356Z,70.72
2017-12-16T10:06:32.300Z,71.00
2017-12-16T10:08:25.259Z,71.60
2017-12-16T10:09:25.150Z,70.53
2017-12-16T10:11:18.065Z,70.34
2017-12-16T10:12:17.995Z,70.09
2017-12-16T10:14:10.964Z,71.19
2017-12-16T10:15:10.848Z,70.90
2017-12-16T10:17:03.772Z,70.43
2017-12-16T10:18:03.686Z,71.47
2017-12-16T10:19:57.691Z,73.08
2017-12-16T10:20:56.564Z,71.13
2017-12-16T10:22:49.466Z,72.45
2017-12-16T10:23:49.402Z,73.22
2017-12-16T10:25:42.272Z,71.51
2017-12-16T10:26:42.294Z,71.80
2017-12-16T10:28:35.166Z,70.37
2017-12-16T10:29:35.114Z,70.47
2017-12-16T10:31:27.975Z,70.90
2017-12-16T10:32:27.948Z,74.03
2017-12-16T10:34:20.870Z,73.27
2017-12-16T10:35:20.793Z,73.37
2017-12-16T10:37:13.958Z,71.98
2017-12-16T10:38:13.731Z,72.45
2017-12-16T10:40:06.965Z,73.79
2017-12-16T10:41:06.677Z,74.73
2017-12-16T10:42:59.857Z,74.16
2017-12-16T10:43:59.638Z,76.82
2017-12-16T10:45:52.653Z,77.11
2017-12-16T10:46:52.586Z,76.92
2017-12-16T10:48:45.755Z,80.14
2017-12-16T10:49:45.538Z,79.61
2017-12-16T10:51:38.551Z,79.80
2017-12-16T10:52:38.493Z,80.56
2017-12-16T10:54:31.706Z,78.28
2017-12-16T10:55:31.445Z,78.09
2017-12-16T10:57:24.666Z,79.61
2017-12-16T10:58:24.640Z,78.75
2017-12-16T11:00:17.659Z,80.75
2017-12-16T11:01:17.556Z,83.78
2017-12-16T11:03:10.572Z,79.61
2017-12-16T11:04:10.512Z,80.65
2017-12-16T11:09:06.759Z,80.37
2017-12-16T11:10:06.651Z,82.55
2017-12-16T11:11:59.536Z,81.32
2017-12-16T11:12:59.570Z,80.18
2017-12-16T11:14:52.447Z,80.18
2017-12-16T11:15:52.360Z,79.33
2017-12-16T11:17:45.261Z,79.99
2017-12-16T11:18:45.212Z,80.94
2017-12-16T11:20:39.108Z,80.27
2017-12-16T11:21:38.061Z,82.84
2017-12-16T11:25:02.655Z,81.98
2017-12-16T11:26:02.554Z,80.56
2017-12-16T11:27:55.478Z,82.36
2017-12-16T11:28:55.413Z,81.88
2017-12-16T11:32:19.937Z,83.50
2017-12-16T11:33:19.899Z,84.36
2017-12-16T11:38:16.149Z,83.97
2017-12-16T11:39:16.050Z,84.26
2017-12-16T11:41:08.996Z,83.59
2017-12-16T11:42:08.908Z,84.17
2017-12-16T11:44:01.785Z,82.93
2017-12-16T11:45:01.775Z,82.55
2017-12-16T11:46:54.738Z,83.78
2017-12-16T11:47:54.606Z,84.55
2017-12-16T11:49:47.556Z,81.98
2017-12-16T11:50:47.450Z,83.88
2017-12-16T11:52:40.404Z,83.40
2017-12-16T11:53:40.314Z,83.73
2017-12-16T11:55:33.256Z,83.40
2017-12-16T11:56:33.157Z,83.07
2017-12-16T11:58:26.104Z,83.92
2017-12-16T11:59:26.069Z,84.21
2017-12-16T12:01:18.956Z,83.92
2017-12-16T12:02:18.860Z,85.25
2017-12-16T12:04:11.807Z,83.92
2017-12-16T12:05:11.770Z,84.21
2017-12-16T12:07:04.654Z,84.11
2017-12-16T12:08:04.558Z,84.21
2017-12-16T12:09:57.468Z,84.21
2017-12-16T12:10:57.410Z,85.35
2017-12-16T12:12:50.292Z,84.40
2017-12-16T12:13:50.256Z,83.92
2017-12-16T12:15:43.176Z,84.21
2017-12-16T12:16:43.115Z,85.63
2017-12-16T12:18:35.993Z,85.63
2017-12-16T12:19:35.957Z,85.35
2017-12-16T12:21:28.876Z,85.25
2017-12-16T12:22:28.809Z,85.44
2017-12-16T12:24:21.687Z,85.44
2017-12-16T12:25:21.661Z,86.20
2017-12-16T12:27:14.577Z,85.63
2017-12-16T12:28:14.509Z,85.25
2017-12-16T12:30:07.461Z,85.63
2017-12-16T12:31:07.363Z,85.16
2017-12-16T12:33:00.279Z,84.68
2017-12-16T12:34:00.214Z,85.06
2017-12-16T12:35:53.164Z,84.78
2017-12-16T12:36:53.065Z,84.40
2017-12-16T12:38:45.975Z,84.07
2017-12-16T12:39:45.915Z,84.55
2017-12-16T12:41:38.865Z,83.50
2017-12-16T12:42:38.765Z,84.07
2017-12-16T12:44:31.677Z,84.45
2017-12-16T12:45:31.679Z,84.26
2017-12-16T12:47:24.495Z,84.17
2017-12-16T12:48:24.471Z,84.74
2017-12-16T12:50:17.376Z,84.49
2017-12-16T12:51:17.316Z,83.83
2017-12-16T12:53:10.197Z,85.63
2017-12-16T12:54:10.166Z,85.25
2017-12-16T12:56:03.094Z,85.44
2017-12-16T12:57:03.083Z,84.01
2017-12-16T12:58:56.481Z,85.82
2017-12-16T12:59:56.377Z,85.63
2017-12-16T13:01:50.176Z,84.40
2017-12-16T13:02:49.751Z,84.97
2017-12-16T13:04:42.635Z,85.35
2017-12-16T13:05:42.658Z,85.11
2017-12-16T13:07:35.506Z,83.83
2017-12-16T13:08:35.443Z,85.44
2017-12-16T13:10:29.350Z,86.30
2017-12-16T13:11:29.317Z,85.53
2017-12-16T13:13:22.235Z,85.63
2017-12-16T13:14:22.168Z,85.16
2017-12-16T13:16:15.051Z,85.35
2017-12-16T13:17:15.024Z,85.91
2017-12-16T13:19:07.928Z,87.05
2017-12-16T13:20:07.868Z,86.11
2017-12-16T13:22:00.820Z,86.87
2017-12-16T13:23:00.720Z,85.72
2017-12-16T13:24:53.630Z,85.25
2017-12-16T13:25:53.564Z,87.24
2017-12-16T13:27:46.455Z,85.91
2017-12-16T13:28:46.423Z,85.72
2017-12-16T13:30:39.370Z,85.30
2017-12-16T13:31:39.273Z,85.30
2017-12-16T13:33:32.218Z,85.30
2017-12-16T13:34:32.118Z,85.40
2017-12-16T13:36:25.067Z,85.21
2017-12-16T13:37:24.970Z,84.64
2017-12-16T13:39:17.850Z,85.78
2017-12-16T13:40:17.822Z,84.74
2017-12-16T13:42:11.792Z,84.26
2017-12-16T13:43:10.671Z,84.45
2017-12-16T13:45:03.557Z,84.64
2017-12-16T13:46:03.523Z,83.78
2017-12-16T13:47:56.470Z,83.78
2017-12-16T13:48:56.369Z,83.50
2017-12-16T13:50:49.327Z,83.31
2017-12-16T13:51:49.235Z,84.17
2017-12-16T13:53:42.176Z,83.40
2017-12-16T13:54:42.073Z,83.03
2017-12-16T13:56:35.021Z,83.22
2017-12-16T13:57:34.928Z,82.55
2017-12-16T13:59:27.870Z,82.93
2017-12-16T14:00:27.773Z,82.08
2017-12-16T14:02:20.726Z,82.36
2017-12-16T14:03:20.620Z,81.98
2017-12-16T14:05:13.577Z,81.51
2017-12-16T14:06:13.486Z,81.41
2017-12-16T14:08:06.361Z,81.13
2017-12-16T14:09:06.331Z,80.75
2017-12-16T14:10:59.241Z,81.04
2017-12-16T14:11:59.172Z,81.23
2017-12-16T14:13:52.123Z,80.84
2017-12-16T14:14:52.025Z,81.51
2017-12-16T14:16:44.942Z,80.65
2017-12-16T14:17:44.876Z,80.75
2017-12-16T14:19:37.823Z,79.80
2017-12-16T14:20:37.728Z,80.56
2017-12-16T14:22:30.704Z,79.33
2017-12-16T14:23:30.587Z,79.42
2017-12-16T14:25:23.529Z,80.27
2017-12-16T14:26:23.427Z,80.08
2017-12-16T14:28:16.387Z,79.90
2017-12-16T14:29:16.280Z,79.33
2017-12-16T14:31:09.163Z,79.90
2017-12-16T14:32:09.125Z,79.42
2017-12-16T14:34:02.081Z,80.46
2017-12-16T14:35:02.002Z,80.08
2017-12-16T14:36:54.862Z,80.37
2017-12-16T14:37:54.839Z,80.27
2017-12-16T14:39:47.747Z,81.98
2017-12-16T14:40:47.742Z,81.51
2017-12-16T14:42:40.590Z,82.46
2017-12-16T14:43:40.594Z,81.41
2017-12-16T14:45:33.486Z,82.84
2017-12-16T14:46:33.377Z,82.27
2017-12-16T14:48:26.329Z,81.98
2017-12-16T14:49:26.234Z,81.70
2017-12-16T14:51:19.147Z,81.23
2017-12-16T14:52:19.090Z,81.41
2017-12-16T14:54:11.968Z,81.88
2017-12-16T14:55:11.936Z,82.17
2017-12-16T14:57:04.852Z,81.04
2017-12-16T14:58:04.786Z,82.17
2017-12-16T14:59:58.184Z,81.88
2017-12-16T15:00:58.145Z,82.36
2017-12-16T15:02:51.061Z,82.17
2017-12-16T15:03:50.996Z,82.17
2017-12-16T15:05:43.883Z,82.36
2017-12-16T15:06:43.910Z,82.65
2017-12-16T15:08:36.761Z,82.84
2017-12-16T15:09:36.761Z,82.55
2017-12-16T15:11:29.646Z,83.22
2017-12-16T15:12:29.550Z,83.59
2017-12-16T15:14:23.486Z,83.40
2017-12-16T15:15:23.423Z,82.93
2017-12-16T15:17:16.374Z,82.84
2017-12-16T15:18:16.273Z,83.03
2017-12-16T15:20:09.186Z,83.59
2017-12-16T15:21:09.121Z,83.12
2017-12-16T15:23:02.072Z,82.65
2017-12-16T15:24:01.975Z,83.03
2017-12-16T15:25:54.888Z,83.50
2017-12-16T15:26:54.822Z,82.93
2017-12-16T15:28:47.709Z,82.70
2017-12-16T15:29:47.673Z,82.32
2017-12-16T15:31:40.596Z,82.42
2017-12-16T15:32:40.525Z,83.08
2017-12-16T15:34:33.419Z,82.13
2017-12-16T15:35:33.375Z,83.17
2017-12-16T15:37:26.295Z,82.04
2017-12-16T15:38:26.228Z,83.17
2017-12-16T15:40:19.111Z,82.51
2017-12-16T15:41:19.148Z,82.98
2017-12-16T15:43:11.993Z,83.08
2017-12-16T15:44:11.929Z,82.42
2017-12-16T15:46:04.874Z,82.04
2017-12-16T15:47:04.786Z,82.04
2017-12-16T15:48:57.694Z,82.51
2017-12-16T15:49:57.692Z,82.60
2017-12-16T15:51:50.577Z,82.23
2017-12-16T15:52:50.486Z,82.04
2017-12-16T15:54:43.396Z,82.32
2017-12-16T15:55:43.329Z,81.56
2017-12-16T15:57:36.280Z,82.60
2017-12-16T15:58:36.183Z,82.51
2017-12-16T16:00:29.190Z,81.56
2017-12-16T16:01:29.299Z,81.94
2017-12-16T16:03:22.284Z,81.27
2017-12-16T16:04:22.080Z,80.90
2017-12-16T16:06:15.248Z,81.27
2017-12-16T16:07:15.038Z,80.80
2017-12-16T16:09:08.023Z,81.24
2017-12-16T16:10:08.052Z,80.80
2017-12-16T16:12:01.006Z,80.38
2017-12-16T16:13:01.109Z,80.52
2017-12-16T16:14:53.928Z,79.53
2017-12-16T16:15:53.895Z,79.25
2017-12-16T16:17:46.912Z,79.28
2017-12-16T16:18:47.013Z,79.15
2017-12-16T16:20:39.828Z,79.44
2017-12-16T16:21:39.804Z,79.34
2017-12-16T16:23:32.810Z,78.58
2017-12-16T16:24:32.751Z,78.11
2017-12-16T16:26:25.707Z,79.25
2017-12-16T16:27:25.613Z,78.62
2017-12-16T16:29:18.560Z,78.96
2017-12-16T16:30:18.522Z,78.67
2017-12-16T16:32:11.340Z,78.58
2017-12-16T16:33:11.370Z,78.11
2017-12-16T16:35:04.260Z,77.73
2017-12-16T16:36:04.222Z,77.83
2017-12-16T16:37:57.109Z,77.64
2017-12-16T16:38:57.018Z,77.54
2017-12-16T16:40:49.923Z,76.68
2017-12-16T16:41:49.861Z,77.06
2017-12-16T16:43:42.811Z,76.68
2017-12-16T16:44:42.710Z,76.59
2017-12-16T16:46:35.627Z,75.55
2017-12-16T16:47:35.558Z,75.45
2017-12-16T16:49:28.508Z,75.74
2017-12-16T16:50:28.417Z,75.36
2017-12-16T16:52:21.360Z,75.26
2017-12-16T16:53:21.267Z,76.68
2017-12-16T16:55:14.142Z,75.64
2017-12-16T16:56:14.120Z,75.74
2017-12-16T16:58:07.024Z,75.93
2017-12-16T16:59:07.028Z,75.64
2017-12-16T17:00:59.842Z,75.07
2017-12-16T17:01:59.875Z,75.17
2017-12-16T17:03:52.764Z,74.69
2017-12-16T17:04:52.660Z,74.32
2017-12-16T17:06:46.058Z,75.84
2017-12-16T17:07:46.088Z,75.84
2017-12-16T17:09:38.945Z,76.68
2017-12-16T17:10:38.871Z,75.93
2017-12-16T17:12:31.757Z,76.68
2017-12-16T17:13:31.723Z,76.31
2017-12-16T17:15:24.644Z,76.59
2017-12-16T17:16:24.642Z,76.97
2017-12-16T17:18:17.528Z,76.21
2017-12-16T17:19:17.428Z,76.59
2017-12-16T17:21:10.375Z,76.50
2017-12-16T17:22:10.284Z,76.59
2017-12-16T17:24:03.161Z,76.68
2017-12-16T17:25:03.191Z,76.68
2017-12-16T17:26:56.076Z,77.54
2017-12-16T17:27:55.979Z,77.16
2017-12-16T17:29:48.864Z,77.06
2017-12-16T17:30:48.828Z,76.87
2017-12-16T17:32:41.740Z,76.68
2017-12-16T17:33:41.677Z,76.78
2017-12-16T17:35:34.629Z,76.03
2017-12-16T17:36:34.531Z,75.55
2017-12-16T17:38:27.449Z,75.93
2017-12-16T17:39:27.378Z,75.84
2017-12-16T17:41:20.331Z,75.36
2017-12-16T17:42:20.232Z,75.55
2017-12-16T17:44:13.147Z,75.84
2017-12-16T17:45:13.087Z,75.55
2017-12-16T17:47:06.034Z,75.93
2017-12-16T17:48:05.926Z,76.03
2017-12-16T17:49:58.842Z,75.26
2017-12-16T17:50:58.784Z,76.12
2017-12-16T17:52:51.666Z,75.55
2017-12-16T17:53:51.697Z,75.55
2017-12-16T17:55:44.714Z,76.03
2017-12-16T17:56:44.549Z,76.50
2017-12-16T17:58:37.371Z,76.31
2017-12-16T17:59:37.337Z,76.68
2017-12-16T18:01:30.250Z,75.55
2017-12-16T18:02:30.254Z,76.12
2017-12-16T18:04:23.138Z,75.64
2017-12-16T18:05:23.034Z,75.45
2017-12-16T18:07:15.947Z,75.36
2017-12-16T18:08:15.886Z,75.45
2017-12-16T18:10:08.832Z,75.64
2017-12-16T18:11:08.735Z,75.64
2017-12-16T18:13:01.653Z,75.55
2017-12-16T18:14:01.595Z,75.84
2017-12-16T18:15:54.532Z,74.69
2017-12-16T18:16:54.438Z,75.36
2017-12-16T18:18:47.355Z,74.51
2017-12-16T18:19:47.350Z,75.07
2017-12-16T18:21:40.239Z,74.32
2017-12-16T18:22:40.140Z,74.41
2017-12-16T18:24:33.051Z,74.51
2017-12-16T18:25:33.054Z,74.98
2017-12-16T18:27:25.870Z,74.69
2017-12-16T18:28:26.008Z,74.13
2017-12-16T18:30:18.856Z,74.03
2017-12-16T18:31:18.787Z,73.84
2017-12-16T18:33:11.744Z,74.13
2017-12-16T18:34:11.640Z,73.84
2017-12-16T18:36:04.558Z,73.56
2017-12-16T18:37:04.495Z,73.46
2017-12-16T18:38:57.446Z,73.65
2017-12-16T18:39:57.339Z,72.89
2017-12-16T18:41:50.293Z,71.66
2017-12-16T18:42:50.196Z,71.76
2017-12-16T18:44:43.082Z,71.72
2017-12-16T18:45:43.041Z,71.81
2017-12-16T18:47:36.005Z,71.44